.
WxDataArchive / Data Records for 2009-10-29
2009-10-28 October 2009 2009-10-30

Data Records for Thursday, 29 October 2009

Time	Temp	Chill	HIndex	Humid	Dewpt	 Wind 	HiWind	WindDir	Rain 	Barom 
-----	----	-----	------	-----	-----	------	------	-------	-----	----- 
00:00	45.5	45.5	45.5	95	44.2	0	0	---	0.00	30.153 
00:05	46.1	46.1	46.1	95	44.7	0	3	90	0.00	30.153 
00:10	46.8	46.8	46.8	96	45.7	0	2	90	0.00	30.153 
00:15	47.4	47.4	47.4	96	46.3	0	0	---	0.00	30.154 
00:20	47.7	47.7	47.7	96	46.6	0	1	90	0.00	30.154 
00:25	47.9	47.9	47.9	96	46.8	0	0	---	0.00	30.154 
00:30	48.0	48.0	48.0	96	46.9	0	0	---	0.00	30.154 
00:35	48.0	48.0	48.0	96	46.9	0	1	90	0.00	30.154 
00:40	48.0	48.0	48.0	96	46.9	0	0	---	0.00	30.154 
00:45	47.9	47.9	47.9	96	46.8	0	0	---	0.00	30.146 
00:50	47.7	47.7	47.7	96	46.6	0	0	---	0.00	30.146 
00:55	47.6	47.6	47.6	96	46.5	0	0	---	0.00	30.146 
01:00	47.4	47.4	47.4	96	46.3	0	0	---	0.00	30.142 
01:05	47.3	47.3	47.3	96	46.2	0	0	---	0.00	30.142 
01:10	47.1	47.1	47.1	96	46.0	0	0	---	0.00	30.142 
01:15	47.0	47.0	47.0	96	45.9	0	0	---	0.00	30.140 
01:20	46.8	46.8	46.8	96	45.7	0	0	---	0.00	30.140 
01:25	46.8	46.8	46.8	96	45.7	0	0	---	0.00	30.140 
01:30	46.7	46.7	46.7	96	45.6	0	0	---	0.00	30.144 
01:35	46.8	46.8	46.8	96	45.7	0	0	---	0.00	30.144 
01:40	46.8	46.8	46.8	96	45.7	0	0	---	0.00	30.144 
01:45	47.0	47.0	47.0	96	45.9	0	0	---	0.00	30.144 
01:50	47.1	47.1	47.1	96	46.0	0	0	---	0.00	30.144 
01:55	47.4	47.4	47.4	96	46.3	0	0	---	0.00	30.144 
02:00	47.6	47.6	47.6	96	46.5	0	0	---	0.00	30.147 
02:05	47.6	47.6	47.6	96	46.5	0	0	---	0.00	30.147 
02:10	47.7	47.7	47.7	96	46.6	0	0	---	0.00	30.147 
02:15	47.7	47.7	47.7	96	46.6	0	0	---	0.00	30.148 
02:20	47.9	47.9	47.9	96	46.8	0	0	---	0.00	30.148 
02:25	48.0	48.0	48.0	96	46.9	0	0	---	0.00	30.148 
02:30	48.0	48.0	48.0	96	46.9	0	0	---	0.00	30.147 
02:35	48.2	48.2	48.2	96	47.1	0	0	---	0.00	30.147 
02:40	48.2	48.2	48.2	96	47.1	0	0	---	0.00	30.147 
02:45	48.3	48.3	48.3	96	47.2	0	0	---	0.00	30.148 
02:50	48.3	48.3	48.3	96	47.2	0	0	---	0.00	30.148 
02:55	48.3	48.3	48.3	96	47.2	0	0	---	0.00	30.148 
03:00	48.0	48.0	48.0	96	46.9	0	0	---	0.00	30.148 
03:05	47.9	47.9	47.9	96	46.8	0	0	---	0.00	30.148 
03:10	47.6	47.6	47.6	96	46.5	0	0	---	0.00	30.148 
03:15	47.3	47.3	47.3	96	46.2	0	0	---	0.00	30.147 
03:20	47.0	47.0	47.0	96	45.9	0	0	---	0.00	30.147 
03:25	46.7	46.7	46.7	96	45.6	0	0	---	0.00	30.147 
03:30	46.5	46.5	46.5	96	45.4	0	0	---	0.00	30.149 
03:35	46.4	46.4	46.4	96	45.3	0	0	---	0.00	30.149 
03:40	46.2	46.2	46.2	96	45.1	0	0	---	0.00	30.149 
03:45	46.1	46.1	46.1	96	45.0	0	0	---	0.00	30.154 
03:50	45.8	45.8	45.8	96	44.7	0	0	---	0.00	30.154 
03:55	45.7	45.7	45.7	96	44.6	0	0	---	0.00	30.154 
04:00	45.4	45.4	45.4	96	44.3	0	0	---	0.00	30.157 
04:05	45.2	45.2	45.2	96	44.1	0	0	---	0.00	30.157 
04:10	45.1	45.1	45.1	96	44.0	0	0	---	0.00	30.157 
04:15	44.9	44.9	44.9	96	43.8	0	0	---	0.00	30.158 
04:20	44.9	44.9	44.9	96	43.8	0	0	---	0.00	30.158 
04:25	44.8	44.8	44.8	96	43.7	0	0	---	0.00	30.158 
04:30	44.8	44.8	44.8	96	43.7	0	0	---	0.00	30.160 
04:35	44.6	44.6	44.6	96	43.5	0	0	---	0.00	30.160 
04:40	44.5	44.5	44.5	96	43.4	0	0	---	0.00	30.160 
04:45	44.2	44.2	44.2	96	43.1	0	0	---	0.00	30.165 
04:50	43.9	43.9	43.9	96	42.8	0	0	---	0.00	30.165 
04:55	43.8	43.8	43.8	96	42.7	0	0	---	0.00	30.165 
05:00	43.5	43.5	43.5	96	42.4	0	0	---	0.00	30.164 
05:05	43.3	43.3	43.3	96	42.2	0	0	---	0.00	30.164 
05:10	43.3	43.3	43.3	96	42.2	0	0	---	0.00	30.164 
05:15	43.2	43.2	43.2	96	42.1	0	0	---	0.00	30.162 
05:20	43.1	43.1	43.1	96	42.0	0	0	---	0.00	30.162 
05:25	43.2	43.2	43.2	96	42.1	0	0	---	0.00	30.162 
05:30	43.5	43.5	43.5	96	42.4	0	1	90	0.00	30.164 
05:35	44.1	44.1	44.1	96	43.0	0	0	---	0.00	30.164 
05:40	44.5	44.5	44.5	96	43.4	0	0	---	0.00	30.164 
05:45	44.8	44.8	44.8	96	43.7	0	0	---	0.00	30.172 
05:50	44.9	44.9	44.9	97	44.1	0	0	---	0.00	30.172 
05:55	45.2	45.2	45.2	97	44.4	0	0	---	0.00	30.172 
06:00	45.4	45.4	45.4	97	44.6	0	0	---	0.00	30.175 
06:05	45.4	45.4	45.4	96	44.3	0	0	---	0.00	30.175 
06:10	45.4	45.4	45.4	96	44.3	0	0	---	0.00	30.175 
06:15	45.2	45.2	45.2	96	44.1	0	0	---	0.00	30.189 
06:20	45.2	45.2	45.2	96	44.1	0	0	---	0.00	30.189 
06:25	45.4	45.4	45.4	96	44.3	0	0	---	0.00	30.189 
06:30	45.5	45.5	45.5	96	44.4	0	1	90	0.00	30.191 
06:35	45.7	45.7	45.7	97	44.9	0	2	90	0.00	30.191 
06:40	45.7	45.7	45.7	96	44.6	0	1	90	0.00	30.191 
06:45	45.7	45.7	45.7	96	44.6	0	1	90	0.00	30.197 
06:50	45.5	45.5	45.5	96	44.4	0	2	90	0.00	30.197 
06:55	45.5	45.5	45.5	96	44.4	1	3	90	0.00	30.197 
07:00	45.4	45.4	45.4	97	44.6	0	2	90	0.00	30.198 
07:05	45.2	45.2	45.2	96	44.1	0	3	90	0.00	30.198 
07:10	45.2	45.2	45.2	97	44.4	0	3	90	0.00	30.198 
07:15	45.1	45.1	45.1	96	44.0	0	2	90	0.00	30.210 
07:20	44.9	44.9	44.9	97	44.1	0	2	90	0.00	30.210 
07:25	44.8	44.8	44.8	97	44.0	0	2	90	0.00	30.210 
07:30	44.8	44.8	44.8	97	44.0	1	2	90	0.00	30.209 
07:35	44.6	44.6	44.6	97	43.8	0	2	90	0.00	30.209 
07:40	44.6	44.6	44.6	97	43.8	0	1	90	0.00	30.209 
07:45	44.6	44.6	44.6	97	43.8	0	1	90	0.00	30.204 
07:50	44.6	44.6	44.6	97	43.8	0	1	90	0.00	30.204 
07:55	44.6	44.6	44.6	97	43.8	0	0	---	0.00	30.204 
08:00	44.6	44.6	44.6	97	43.8	0	0	---	0.00	30.211 
08:05	44.8	44.8	44.8	97	44.0	0	1	90	0.00	30.211 
08:10	44.9	44.9	44.9	97	44.1	0	1	90	0.00	30.211 
08:15	44.9	44.9	44.9	97	44.1	0	0	---	0.00	30.211 
08:20	45.1	45.1	45.1	97	44.3	0	1	90	0.00	30.211 
08:25	45.2	45.2	45.2	97	44.4	0	2	90	0.00	30.211 
08:30	45.4	45.4	45.4	97	44.6	0	1	90	0.00	30.214 
08:35	45.5	45.5	45.5	97	44.7	0	1	90	0.00	30.214 
08:40	45.7	45.7	45.7	97	44.9	0	1	90	0.00	30.214 
08:45	45.8	45.8	45.8	97	45.0	0	2	90	0.00	30.215 
08:50	46.0	46.0	46.0	97	45.2	0	2	90	0.00	30.215 
08:55	46.1	46.1	46.1	97	45.3	0	2	90	0.00	30.215 
09:00	46.2	46.2	46.2	97	45.4	0	1	90	0.00	30.215 
09:05	46.4	46.4	46.4	97	45.6	0	1	90	0.00	30.215 
09:10	46.4	46.4	46.4	97	45.6	0	1	90	0.00	30.215 
09:15	46.5	46.5	46.5	97	45.7	0	2	90	0.00	30.217 
09:20	46.7	46.7	46.7	97	45.9	1	3	90	0.00	30.217 
09:25	46.8	46.8	46.8	97	46.0	0	2	90	0.00	30.217 
09:30	47.0	47.0	47.0	97	46.2	0	1	90	0.00	30.214 
09:35	47.3	47.3	47.3	97	46.5	0	1	90	0.00	30.214 
09:40	47.4	47.4	47.4	97	46.6	0	1	90	0.00	30.214 
09:45	47.6	47.6	47.6	97	46.8	0	1	90	0.00	30.215 
09:50	47.7	47.7	47.7	97	46.9	0	1	90	0.00	30.215 
09:55	48.0	48.0	48.0	97	47.2	0	1	90	0.00	30.215 
10:00	48.3	48.3	48.3	97	47.5	0	1	90	0.00	30.216 
10:05	48.5	48.5	48.5	97	47.7	0	2	90	0.00	30.216 
10:10	48.8	48.8	48.8	97	48.0	1	3	90	0.00	30.216 
10:15	48.9	48.9	48.9	97	48.1	1	3	90	0.00	30.210 
10:20	49.2	49.2	49.2	97	48.4	1	3	90	0.00	30.210 
10:25	49.5	49.5	49.5	98	49.0	1	3	90	0.00	30.210 
10:30	49.8	49.8	49.8	98	49.3	1	4	112	0.00	30.198 
10:35	50.2	50.2	50.2	98	49.7	1	4	112	0.00	30.198 
10:40	50.4	50.4	50.4	98	49.9	2	4	68	0.00	30.198 
10:45	50.4	50.4	50.4	98	49.9	1	4	68	0.00	30.202 
10:50	50.7	50.7	50.7	98	50.2	1	3	68	0.00	30.202 
10:55	51.0	51.0	51.0	98	50.5	1	3	68	0.00	30.202 
11:00	51.1	51.1	51.1	98	50.6	2	4	90	0.00	30.191 
11:05	51.3	51.3	51.3	97	50.5	2	7	90	0.00	30.191 
11:10	51.4	51.4	51.4	97	50.6	3	5	90	0.00	30.191 
11:15	51.7	51.7	51.7	97	50.9	2	5	135	0.00	30.180 
11:20	52.0	52.0	52.0	97	51.2	1	4	90	0.00	30.180 
11:25	52.3	52.3	52.3	97	51.5	1	5	135	0.00	30.180 
11:30	52.6	52.6	52.6	97	51.8	1	3	135	0.00	30.182 
11:35	52.9	52.9	52.9	96	51.8	2	4	90	0.00	30.182 
11:40	53.2	53.2	53.2	96	52.1	2	6	135	0.00	30.182 
11:45	53.3	53.3	53.3	94	51.6	2	6	112	0.00	30.182 
11:50	53.6	53.6	53.6	92	51.3	2	5	90	0.00	30.182 
11:55	54.1	54.1	54.1	90	51.2	1	4	112	0.00	30.182 
12:00	54.5	54.5	54.5	88	51.0	1	5	45	0.00	30.187 
12:05	54.8	54.8	54.8	86	50.7	1	5	112	0.00	30.187 
12:10	55.3	55.3	55.3	84	50.5	1	4	135	0.00	30.187 
12:15	55.7	55.7	55.7	82	50.3	2	5	68	0.00	30.179 
12:20	56.3	56.3	56.3	80	50.2	1	6	68	0.00	30.179 
12:25	56.6	56.6	56.6	77	49.5	1	5	90	0.00	30.179 
12:30	56.9	56.9	56.9	75	49.1	3	6	112	0.00	30.189 
12:35	57.0	57.0	57.0	75	49.2	2	4	112	0.00	30.189 
12:40	57.2	57.2	57.2	73	48.6	3	9	90	0.00	30.189 
12:45	57.2	57.2	57.2	72	48.3	3	9	90	0.00	30.182 
12:50	57.3	57.3	57.3	71	48.0	3	10	90	0.00	30.182 
12:55	57.5	57.5	57.5	71	48.2	3	11	112	0.00	30.182 
13:00	57.6	57.6	57.6	72	48.6	2	6	112	0.00	30.174 
13:05	57.8	57.8	57.8	71	48.5	3	7	112	0.00	30.174 
13:10	57.8	57.8	57.8	71	48.5	2	6	112	0.00	30.174 
13:15	58.0	58.0	58.0	71	48.6	2	5	112	0.00	30.158 
13:20	58.1	58.1	58.1	70	48.4	2	9	90	0.00	30.158 
13:25	58.0	58.0	58.0	70	48.3	3	7	90	0.00	30.158 
13:30	58.0	58.0	58.0	70	48.3	2	6	90	0.00	30.162 
13:35	58.1	58.1	58.1	70	48.4	1	4	90	0.00	30.162 
13:40	58.0	58.0	58.0	69	47.9	2	6	90	0.00	30.162 
13:45	57.8	57.8	57.8	69	47.7	2	5	90	0.00	30.165 
13:50	57.6	57.6	57.6	70	47.9	2	5	90	0.00	30.165 
13:55	57.6	57.6	57.6	71	48.3	1	4	90	0.00	30.165 
14:00	57.5	57.5	57.5	71	48.2	1	5	90	0.00	30.155 
14:05	57.6	57.6	57.6	72	48.6	2	6	68	0.00	30.155 
14:10	57.6	57.6	57.6	71	48.3	2	6	112	0.00	30.155 
14:15	58.0	58.0	58.0	71	48.6	2	5	112	0.00	30.142 
14:20	58.1	58.1	58.1	71	48.7	2	5	90	0.00	30.142 
14:25	58.3	58.3	58.3	71	48.9	2	5	68	0.00	30.142 
14:30	58.4	58.4	58.4	70	48.7	3	6	112	0.00	30.123 
14:35	58.4	58.4	58.4	71	49.0	2	10	112	0.00	30.123 
14:40	58.3	58.3	58.3	71	48.9	3	7	90	0.00	30.123 
14:45	58.3	58.3	58.3	70	48.6	2	6	68	0.00	30.124 
14:50	58.4	58.4	58.4	70	48.7	2	6	90	0.00	30.124 
14:55	58.6	58.6	58.6	70	48.8	2	5	90	0.00	30.124 
15:00	58.7	58.7	58.7	69	48.6	2	9	112	0.00	30.127 
15:05	58.7	58.7	58.7	69	48.6	3	10	90	0.00	30.127 
15:10	58.9	58.9	58.9	69	48.7	2	6	90	0.00	30.127 
15:15	58.9	58.9	58.9	69	48.7	2	5	90	0.00	30.112 
15:20	59.2	59.2	59.2	69	49.0	3	7	112	0.00	30.112 
15:25	59.3	59.3	59.3	69	49.1	2	5	112	0.00	30.112 
15:30	59.5	59.5	59.5	69	49.3	3	7	112	0.00	30.100 
15:35	59.6	59.6	59.6	68	49.0	3	7	90	0.00	30.100 
15:40	59.9	59.9	59.9	68	49.3	3	11	90	0.00	30.100 
15:45	59.9	59.9	59.9	67	48.9	3	7	112	0.00	30.096 
15:50	60.1	60.1	60.1	67	49.1	2	7	112	0.00	30.096 
15:55	60.1	60.1	60.1	68	49.5	2	5	90	0.00	30.096 
16:00	60.2	60.2	60.2	68	49.6	2	4	90	0.00	30.097 
16:05	60.2	60.2	60.2	66	48.8	2	4	68	0.00	30.097 
16:10	60.4	60.4	60.4	66	49.0	3	7	90	0.00	30.097 
16:15	60.2	60.2	60.2	67	49.2	3	7	90	0.00	30.098 
16:20	60.2	60.2	60.2	67	49.2	1	5	112	0.00	30.098 
16:25	60.1	60.1	60.1	67	49.1	2	4	68	0.00	30.098 
16:30	60.1	60.1	60.1	68	49.5	2	7	90	0.00	30.097 
16:35	60.1	60.1	60.1	68	49.5	2	6	112	0.00	30.097 
16:40	59.9	59.9	59.9	69	49.7	3	6	90	0.00	30.097 
16:45	59.8	59.8	59.8	70	50.0	3	7	112	0.00	30.100 
16:50	59.5	59.5	59.5	70	49.7	1	4	90	0.00	30.100 
16:55	59.3	59.3	59.3	70	49.5	2	6	112	0.00	30.100 
17:00	59.3	59.3	59.3	71	49.9	2	4	112	0.00	30.108 
17:05	59.2	59.2	59.2	72	50.2	2	6	90	0.00	30.108 
17:10	59.0	59.0	59.0	71	49.6	2	6	90	0.00	30.108 
17:15	59.0	59.0	59.0	72	50.0	2	6	90	0.00	30.099 
17:20	58.9	58.9	58.9	72	49.9	3	5	112	0.00	30.099 
17:25	58.7	58.7	58.7	73	50.1	3	7	68	0.00	30.099 
17:30	58.6	58.6	58.6	73	50.0	3	8	112	0.00	30.083 
17:35	58.3	58.3	58.3	73	49.7	3	6	90	0.00	30.083 
17:40	58.1	58.1	58.1	73	49.5	3	10	90	0.00	30.083 
17:45	58.0	58.0	58.0	74	49.8	3	7	90	0.00	30.081 
17:50	57.8	57.8	57.8	74	49.6	3	7	112	0.00	30.081 
17:55	57.6	57.6	57.6	74	49.4	3	5	90	0.00	30.081 
18:00	57.5	57.5	57.5	74	49.3	3	7	90	0.00	30.082 
18:05	57.5	57.5	57.5	75	49.6	3	6	68	0.00	30.082 
18:10	57.3	57.3	57.3	75	49.4	3	7	90	0.00	30.082 
18:15	57.2	57.2	57.2	76	49.7	3	5	112	0.00	30.081 
18:20	57.0	57.0	57.0	76	49.5	2	7	90	0.00	30.081 
18:25	56.7	56.7	56.7	77	49.6	2	6	90	0.00	30.081 
18:30	56.7	56.7	56.7	77	49.6	2	4	90	0.00	30.082 
18:35	56.6	56.6	56.6	77	49.5	2	6	90	0.00	30.082 
18:40	56.5	56.5	56.5	77	49.4	3	6	90	0.00	30.082 
18:45	56.3	56.3	56.3	78	49.5	2	6	68	0.00	30.079 
18:50	56.0	56.0	56.0	78	49.2	2	5	68	0.00	30.079 
18:55	55.9	55.9	55.9	78	49.1	2	5	90	0.00	30.079 
19:00	55.7	55.7	55.7	79	49.3	2	5	90	0.00	30.076 
19:05	55.6	55.6	55.6	79	49.2	2	6	90	0.00	30.076 
19:10	55.6	55.6	55.6	79	49.2	2	9	90	0.00	30.076 
19:15	55.4	55.4	55.4	80	49.3	2	5	90	0.00	30.070 
19:20	55.3	55.3	55.3	80	49.2	2	4	90	0.00	30.070 
19:25	55.3	55.3	55.3	80	49.2	3	6	90	0.00	30.070 
19:30	55.1	55.1	55.1	80	49.0	3	5	90	0.00	30.078 
19:35	55.1	55.1	55.1	81	49.4	2	6	90	0.00	30.078 
19:40	55.0	55.0	55.0	81	49.3	2	5	112	0.00	30.078 
19:45	55.0	55.0	55.0	81	49.3	3	9	90	0.00	30.081 
19:50	55.0	55.0	55.0	81	49.3	2	6	68	0.00	30.081 
19:55	55.0	55.0	55.0	81	49.3	3	7	90	0.00	30.081 
20:00	54.8	54.8	54.8	81	49.1	2	6	90	0.00	30.068 
20:05	54.8	54.8	54.8	81	49.1	3	6	112	0.00	30.068 
20:10	54.7	54.7	54.7	81	49.0	4	10	90	0.00	30.068 
20:15	54.7	54.7	54.7	82	49.3	2	5	112	0.00	30.056 
20:20	54.7	54.7	54.7	82	49.3	3	7	90	0.00	30.056 
20:25	54.5	54.5	54.5	82	49.1	2	5	90	0.00	30.056 
20:30	54.5	54.5	54.5	82	49.1	3	7	90	0.00	30.039 
20:35	54.5	54.5	54.5	82	49.1	4	9	90	0.00	30.039 
20:40	54.5	54.5	54.5	82	49.1	3	5	90	0.00	30.039 
20:45	54.4	54.4	54.4	83	49.3	3	5	112	0.00	30.025 
20:50	54.4	54.4	54.4	83	49.3	3	9	90	0.00	30.025 
20:55	54.2	54.2	54.2	83	49.1	3	7	90	0.00	30.025 
21:00	54.2	54.2	54.2	83	49.1	3	6	112	0.00	30.022 
21:05	54.1	54.1	54.1	83	49.1	3	5	112	0.00	30.022 
21:10	53.9	53.9	53.9	84	49.2	2	7	135	0.00	30.022 
21:15	53.9	53.9	53.9	84	49.2	3	7	90	0.00	30.020 
21:20	53.9	53.9	53.9	84	49.2	1	4	90	0.00	30.020 
21:25	53.9	53.9	53.9	84	49.2	2	6	112	0.00	30.020 
21:30	53.9	53.9	53.9	84	49.2	2	5	90	0.00	30.018 
21:35	53.9	53.9	53.9	84	49.2	1	3	112	0.00	30.018 
21:40	53.9	53.9	53.9	84	49.2	2	5	68	0.00	30.018 
21:45	53.8	53.8	53.8	84	49.1	1	4	90	0.00	30.020 
21:50	53.8	53.8	53.8	84	49.1	1	4	112	0.00	30.020 
21:55	53.6	53.6	53.6	84	48.9	1	3	112	0.00	30.020 
22:00	53.6	53.6	53.6	84	48.9	1	4	112	0.00	30.013 
22:05	53.5	53.5	53.5	84	48.8	0	2	112	0.00	30.013 
22:10	53.5	53.5	53.5	84	48.8	2	7	180	0.00	30.013 
22:15	53.5	53.5	53.5	84	48.8	1	3	90	0.00	30.017 
22:20	53.5	53.5	53.5	84	48.8	1	4	135	0.00	30.017 
22:25	53.6	53.6	53.6	84	48.9	1	2	135	0.00	30.017 
22:30	53.6	53.6	53.6	84	48.9	1	3	135	0.00	30.015 
22:35	53.6	53.6	53.6	84	48.9	1	4	68	0.00	30.015 
22:40	53.5	53.5	53.5	84	48.8	1	3	68	0.00	30.015 
22:45	53.5	53.5	53.5	84	48.8	1	2	112	0.00	30.006 
22:50	53.5	53.5	53.5	84	48.8	1	4	90	0.00	30.006 
22:55	53.3	53.3	53.3	85	48.9	1	2	90	0.00	30.006 
23:00	53.2	53.2	53.2	85	48.8	1	5	90	0.00	30.004 
23:05	53.1	53.1	53.1	85	48.7	1	3	68	0.00	30.004 
23:10	52.9	52.9	52.9	86	48.8	1	3	68	0.00	30.004 
23:15	52.8	52.8	52.8	86	48.7	2	4	68	0.00	29.997 
23:20	52.8	52.8	52.8	86	48.7	1	3	68	0.00	29.997 
23:25	52.6	52.6	52.6	86	48.5	1	4	68	0.00	29.997 
23:30	52.6	52.6	52.6	87	48.8	2	4	112	0.00	29.984 
23:35	52.6	52.6	52.6	87	48.8	2	5	90	0.00	29.984 
23:40	52.6	52.6	52.6	87	48.8	1	3	112	0.00	29.984 
23:45	52.8	52.8	52.8	87	49.0	1	5	112	0.00	29.982 
23:50	52.8	52.8	52.8	86	48.7	2	4	90	0.00	29.982 
23:55	52.9	52.9	52.9	86	48.8	2	4	90	0.00	29.982 

CoCoRaHS
IN-AL-39
A2 Web Hosting
Creative Commons License
GoDaddy
search engine by freefind advanced

loaded 2018-11-20 03:15:16 • last modified 2010-11-18 10:43:29
Privacy PolicyDisclaimer
• wx.awcolley.com is powered by PmWiki v.2002016 •
• all content (unless otherwise noted) © 2018 A W Colley